createdAt,value
2022-08-29T00:00:23.677Z,78.50
2022-08-29T00:02:53.808Z,79.20
2022-08-29T00:05:25.033Z,79.70
2022-08-29T00:07:52.874Z,79.90
2022-08-29T00:10:20.861Z,80.90
2022-08-29T00:12:48.077Z,80.10
2022-08-29T00:15:15.716Z,79.80
2022-08-29T00:17:43.106Z,79.40
2022-08-29T00:20:12.134Z,79.00
2022-08-29T00:22:39.227Z,78.30
2022-08-29T00:25:07.577Z,78.90
2022-08-29T00:27:34.819Z,79.10
2022-08-29T00:30:01.943Z,79.60
2022-08-29T00:32:34.899Z,79.60
2022-08-29T00:35:09.166Z,79.40
2022-08-29T00:37:36.701Z,79.50
2022-08-29T00:40:06.884Z,79.30
2022-08-29T00:42:35.655Z,79.30
2022-08-29T00:45:07.741Z,79.20
2022-08-29T00:47:46.051Z,79.10
2022-08-29T00:50:24.487Z,79.20
2022-08-29T00:52:51.746Z,79.20
2022-08-29T00:55:22.510Z,79.00
2022-08-29T00:57:57.679Z,78.70
2022-08-29T01:00:26.570Z,78.70
2022-08-29T01:02:54.353Z,79.00
2022-08-29T01:05:22.330Z,79.90
2022-08-29T01:07:49.793Z,80.50
2022-08-29T01:10:35.723Z,80.00
2022-08-29T01:13:04.645Z,80.50
2022-08-29T01:15:33.657Z,80.40
2022-08-29T01:18:02.705Z,81.10
2022-08-29T01:20:40.233Z,80.60
2022-08-29T01:23:09.829Z,81.30
2022-08-29T01:25:45.161Z,82.20
2022-08-29T01:28:37.918Z,81.20
2022-08-29T01:31:06.606Z,80.60
2022-08-29T01:33:41.314Z,81.10
2022-08-29T01:36:10.628Z,81.10
2022-08-29T01:38:38.750Z,81.40
2022-08-29T01:41:06.834Z,81.50
2022-08-29T01:43:41.117Z,81.70
2022-08-29T01:46:08.386Z,82.00
2022-08-29T01:48:38.108Z,81.40
2022-08-29T01:51:04.946Z,82.00
2022-08-29T01:53:31.685Z,82.00
2022-08-29T01:55:58.498Z,81.50
2022-08-29T01:58:25.226Z,80.50
2022-08-29T02:00:52.034Z,79.90
2022-08-29T02:03:19.029Z,81.00
2022-08-29T02:05:47.472Z,80.70
2022-08-29T02:08:14.513Z,80.70
2022-08-29T02:10:41.360Z,81.20
2022-08-29T02:13:08.285Z,81.30
2022-08-29T02:15:35.762Z,80.80
2022-08-29T02:18:02.482Z,80.30
2022-08-29T02:20:29.242Z,80.10
2022-08-29T02:22:55.955Z,80.40
2022-08-29T02:25:41.220Z,81.60
2022-08-29T02:28:09.585Z,80.10
2022-08-29T02:30:36.399Z,80.70
2022-08-29T02:33:04.915Z,79.90
2022-08-29T02:35:35.110Z,80.40
2022-08-29T02:38:04.072Z,80.90
2022-08-29T02:40:33.000Z,82.10
2022-08-29T02:43:01.325Z,81.40
2022-08-29T02:45:28.096Z,81.80
2022-08-29T02:47:54.848Z,82.70
2022-08-29T02:50:22.264Z,82.30
2022-08-29T02:52:49.239Z,82.10
2022-08-29T02:55:17.983Z,82.20
2022-08-29T02:57:45.571Z,81.60
2022-08-29T03:00:19.076Z,81.70
2022-08-29T03:02:47.331Z,81.50
2022-08-29T03:05:15.624Z,81.80
2022-08-29T03:07:42.622Z,81.20
2022-08-29T03:10:09.745Z,81.70
2022-08-29T03:12:37.180Z,81.40
2022-08-29T03:15:05.581Z,81.60
2022-08-29T03:17:32.696Z,82.60
2022-08-29T03:19:59.812Z,81.40
2022-08-29T03:22:27.701Z,81.80
2022-08-29T03:24:54.500Z,80.70
2022-08-29T03:27:22.899Z,81.60
2022-08-29T03:29:49.669Z,81.10
2022-08-29T03:32:16.366Z,81.20
2022-08-29T03:34:43.097Z,80.80
2022-08-29T03:37:09.831Z,81.30
2022-08-29T03:39:37.888Z,80.90
2022-08-29T03:42:06.418Z,81.90
2022-08-29T03:44:34.437Z,80.60
2022-08-29T03:47:01.287Z,80.40
2022-08-29T03:49:28.315Z,80.40
2022-08-29T03:51:55.633Z,80.20
2022-08-29T03:54:22.596Z,81.00
2022-08-29T03:56:49.645Z,79.70
2022-08-29T03:59:18.165Z,80.50
2022-08-29T04:01:48.012Z,80.10
2022-08-29T04:04:34.217Z,80.30
2022-08-29T04:07:01.999Z,81.90
2022-08-29T04:09:29.996Z,80.80
2022-08-29T04:11:56.937Z,81.00
2022-08-29T04:14:23.713Z,80.40
2022-08-29T04:16:50.917Z,79.60
2022-08-29T04:19:18.810Z,79.80
2022-08-29T04:21:46.048Z,79.40
2022-08-29T04:24:13.074Z,79.80
2022-08-29T04:26:41.036Z,80.20
2022-08-29T04:29:09.865Z,80.40
2022-08-29T04:31:38.434Z,80.40
2022-08-29T04:34:07.211Z,80.70
2022-08-29T04:36:38.830Z,80.90
2022-08-29T04:39:06.437Z,81.20
2022-08-29T04:41:34.026Z,81.00
2022-08-29T04:44:01.826Z,81.10
2022-08-29T04:46:29.012Z,79.20
2022-08-29T04:48:57.560Z,80.90
2022-08-29T04:51:26.285Z,80.60
2022-08-29T04:53:53.367Z,81.30
2022-08-29T04:56:21.489Z,81.40
2022-08-29T04:58:48.505Z,80.60
2022-08-29T05:01:17.427Z,80.90
2022-08-29T05:03:44.764Z,80.60
2022-08-29T05:06:14.265Z,81.60
2022-08-29T05:08:42.534Z,80.50
2022-08-29T05:11:12.604Z,80.60
2022-08-29T05:13:39.420Z,80.30
2022-08-29T05:16:12.115Z,79.20
2022-08-29T05:18:39.648Z,80.90
2022-08-29T05:21:06.900Z,79.70
2022-08-29T05:23:34.756Z,80.50
2022-08-29T05:26:04.489Z,81.50
2022-08-29T05:28:33.268Z,81.70
2022-08-29T05:31:00.665Z,81.30
2022-08-29T05:33:27.595Z,80.60
2022-08-29T05:35:54.542Z,79.00
2022-08-29T05:38:21.566Z,78.90
2022-08-29T05:40:48.347Z,79.00
2022-08-29T05:43:15.068Z,79.30
2022-08-29T05:45:42.786Z,81.30
2022-08-29T05:48:09.852Z,80.10
2022-08-29T05:50:43.988Z,80.00
2022-08-29T05:53:13.424Z,80.00
2022-08-29T05:55:44.832Z,78.80
2022-08-29T05:58:12.770Z,78.90
2022-08-29T06:00:44.766Z,79.10
2022-08-29T06:03:12.947Z,79.40
2022-08-29T06:05:41.065Z,79.30
2022-08-29T06:08:08.763Z,79.20
2022-08-29T06:10:41.166Z,79.00
2022-08-29T06:13:07.952Z,78.60
2022-08-29T06:15:34.947Z,78.30
2022-08-29T06:18:01.873Z,79.00
2022-08-29T06:20:28.788Z,79.20
2022-08-29T06:22:55.560Z,78.80
2022-08-29T06:25:38.620Z,77.60
2022-08-29T06:28:06.502Z,78.40
2022-08-29T06:30:33.574Z,78.10
2022-08-29T06:33:01.604Z,78.50
2022-08-29T06:35:28.738Z,78.00
2022-08-29T06:37:55.501Z,77.10
2022-08-29T06:40:22.648Z,78.50
2022-08-29T06:42:49.417Z,78.20
2022-08-29T06:45:16.185Z,78.30
2022-08-29T06:47:43.334Z,78.10
2022-08-29T06:50:10.225Z,78.10
2022-08-29T06:52:36.920Z,77.00
2022-08-29T06:55:05.265Z,77.90
2022-08-29T06:57:32.030Z,78.00
2022-08-29T06:59:58.780Z,78.20
2022-08-29T07:02:25.538Z,77.90
2022-08-29T07:04:52.325Z,76.60
2022-08-29T07:07:19.134Z,77.00
2022-08-29T07:09:45.896Z,78.20
2022-08-29T07:12:12.648Z,77.80
2022-08-29T07:14:39.374Z,77.70
2022-08-29T07:17:06.629Z,78.00
2022-08-29T07:19:33.336Z,77.50
2022-08-29T07:22:00.229Z,78.50
2022-08-29T07:24:26.994Z,77.80
2022-08-29T07:26:53.798Z,77.60
2022-08-29T07:29:22.056Z,77.30
2022-08-29T07:31:49.182Z,78.00
2022-08-29T07:34:20.431Z,77.70
2022-08-29T07:36:47.837Z,76.90
2022-08-29T07:39:17.434Z,76.30
2022-08-29T07:41:44.734Z,74.80
2022-08-29T07:44:13.077Z,75.20
2022-08-29T07:46:40.374Z,75.00
2022-08-29T07:49:07.182Z,75.70
2022-08-29T07:51:34.902Z,74.90
2022-08-29T07:54:04.532Z,74.20
2022-08-29T07:56:38.996Z,73.40
2022-08-29T07:59:06.987Z,73.00
2022-08-29T08:01:35.570Z,72.20
2022-08-29T08:04:02.990Z,72.10
2022-08-29T08:06:30.683Z,71.70
2022-08-29T08:08:57.583Z,71.80
2022-08-29T08:11:26.045Z,71.10
2022-08-29T08:13:54.469Z,72.20
2022-08-29T08:16:26.639Z,71.70
2022-08-29T08:18:54.914Z,71.70
2022-08-29T08:21:22.322Z,70.80
2022-08-29T08:23:49.302Z,71.50
2022-08-29T08:26:17.213Z,71.60
2022-08-29T08:28:44.235Z,70.80
2022-08-29T08:31:14.160Z,71.00
2022-08-29T08:33:41.477Z,70.40
2022-08-29T08:36:22.581Z,69.60
2022-08-29T08:38:50.430Z,70.70
2022-08-29T08:41:27.034Z,70.80
2022-08-29T08:44:01.349Z,71.30
2022-08-29T08:46:37.346Z,71.30
2022-08-29T08:49:20.026Z,70.40
2022-08-29T08:51:59.721Z,69.60
2022-08-29T08:54:34.802Z,70.60
2022-08-29T08:57:08.637Z,70.50
2022-08-29T08:59:43.443Z,71.40
2022-08-29T09:02:35.352Z,70.10
2022-08-29T09:05:32.899Z,69.50
2022-08-29T09:08:19.455Z,69.10
2022-08-29T09:10:58.912Z,67.70
2022-08-29T09:14:02.719Z,67.30
2022-08-29T09:16:51.449Z,67.20
2022-08-29T09:19:18.180Z,67.80
2022-08-29T09:21:53.722Z,66.30
2022-08-29T09:24:38.802Z,64.90
2022-08-29T09:27:06.239Z,65.40
2022-08-29T09:29:32.979Z,65.10
2022-08-29T09:32:07.227Z,65.20
2022-08-29T09:35:04.875Z,65.10
2022-08-29T09:37:32.725Z,66.10
2022-08-29T09:40:09.931Z,65.90
2022-08-29T09:42:41.347Z,66.60
2022-08-29T09:45:25.155Z,66.10
2022-08-29T09:48:35.332Z,65.10
2022-08-29T09:51:31.244Z,64.90
2022-08-29T09:54:17.872Z,66.50
2022-08-29T09:57:12.714Z,65.40
2022-08-29T09:59:45.343Z,65.70
2022-08-29T10:02:26.599Z,65.10
2022-08-29T10:05:01.377Z,65.20
2022-08-29T10:07:36.420Z,64.20
2022-08-29T10:10:15.527Z,64.70
2022-08-29T10:12:54.500Z,65.70
2022-08-29T10:15:49.927Z,63.60
2022-08-29T10:18:20.572Z,63.20
2022-08-29T10:21:03.901Z,63.00
2022-08-29T10:23:57.569Z,63.70
2022-08-29T10:26:50.112Z,63.00
2022-08-29T10:29:40.044Z,63.80
2022-08-29T10:32:36.177Z,62.80
2022-08-29T10:35:19.691Z,62.40
2022-08-29T10:38:13.588Z,62.60
2022-08-29T10:40:49.972Z,62.30
2022-08-29T10:43:29.033Z,59.80
2022-08-29T10:46:24.092Z,59.70
2022-08-29T10:49:17.808Z,62.00
2022-08-29T10:51:58.616Z,61.50
2022-08-29T10:54:49.350Z,61.50
2022-08-29T10:57:43.242Z,60.80
2022-08-29T11:00:19.340Z,59.00
2022-08-29T11:02:53.138Z,58.10
2022-08-29T11:05:26.809Z,58.00
2022-08-29T11:08:09.568Z,57.10
2022-08-29T11:10:43.850Z,56.20
2022-08-29T11:13:40.607Z,56.60
2022-08-29T11:16:17.292Z,57.60
2022-08-29T11:18:47.141Z,56.90
2022-08-29T11:21:41.811Z,57.50
2022-08-29T11:24:12.070Z,57.30
2022-08-29T11:27:02.270Z,59.40
2022-08-29T11:30:14.009Z,57.90
2022-08-29T11:32:59.574Z,57.10
2022-08-29T11:35:37.486Z,56.20
2022-08-29T11:38:25.015Z,54.70
2022-08-29T11:41:27.001Z,54.50
2022-08-29T11:44:15.409Z,54.40
2022-08-29T11:46:49.397Z,53.90
2022-08-29T11:49:33.772Z,54.30
2022-08-29T11:52:18.861Z,52.60
2022-08-29T11:54:54.332Z,52.50
2022-08-29T11:57:20.982Z,54.30
2022-08-29T11:59:56.424Z,54.30
2022-08-29T12:02:30.140Z,53.60
2022-08-29T12:05:06.095Z,51.80
2022-08-29T12:07:41.846Z,52.00
2022-08-29T12:10:34.380Z,52.60
2022-08-29T12:13:03.996Z,54.20
2022-08-29T12:15:32.079Z,52.60
2022-08-29T12:18:03.355Z,53.10
2022-08-29T12:20:30.498Z,53.30
2022-08-29T12:23:03.757Z,52.50
2022-08-29T12:25:43.246Z,52.70
2022-08-29T12:28:17.229Z,52.70
2022-08-29T12:30:46.020Z,52.30
2022-08-29T12:33:36.208Z,51.90
2022-08-29T12:36:24.839Z,50.80
2022-08-29T12:39:22.186Z,51.30
2022-08-29T12:42:22.063Z,50.90
2022-08-29T12:45:03.006Z,51.10
2022-08-29T12:47:40.892Z,50.30
2022-08-29T12:50:21.995Z,49.70
2022-08-29T12:53:17.319Z,49.10
2022-08-29T12:55:51.549Z,47.20
2022-08-29T12:58:44.088Z,48.10
2022-08-29T13:01:26.727Z,49.10
2022-08-29T13:04:11.845Z,49.00
2022-08-29T13:06:54.735Z,48.20
2022-08-29T13:09:51.652Z,50.20
2022-08-29T13:12:24.114Z,48.90
2022-08-29T13:14:55.350Z,48.40
2022-08-29T13:17:29.039Z,49.70
2022-08-29T13:20:33.513Z,47.70
2022-08-29T13:23:11.964Z,47.60
2022-08-29T13:26:04.644Z,47.70
2022-08-29T13:28:50.965Z,46.60
2022-08-29T13:31:18.384Z,46.80
2022-08-29T13:33:48.012Z,47.50
2022-08-29T13:36:46.756Z,46.20
2022-08-29T13:39:24.896Z,46.70
2022-08-29T13:41:57.417Z,45.60
2022-08-29T13:44:30.728Z,46.10
2022-08-29T13:47:00.885Z,46.00
2022-08-29T13:49:34.288Z,46.10
2022-08-29T13:52:01.851Z,47.90
2022-08-29T13:54:33.428Z,47.00
2022-08-29T13:57:04.445Z,45.80
2022-08-29T13:59:36.681Z,46.30
2022-08-29T14:02:08.945Z,46.10
2022-08-29T14:04:39.358Z,45.70
2022-08-29T14:07:13.160Z,44.80
2022-08-29T14:09:42.887Z,44.90
2022-08-29T14:12:10.329Z,43.80
2022-08-29T14:14:37.201Z,43.90
2022-08-29T14:17:04.852Z,44.20
2022-08-29T14:19:31.672Z,44.00
2022-08-29T14:22:02.146Z,43.60
2022-08-29T14:24:30.949Z,44.10
2022-08-29T14:27:01.953Z,44.70
2022-08-29T14:29:30.915Z,45.20
2022-08-29T14:31:59.241Z,45.70
2022-08-29T14:34:30.909Z,45.00
2022-08-29T14:36:59.893Z,43.70
2022-08-29T14:39:26.710Z,43.90
2022-08-29T14:41:54.416Z,44.20
2022-08-29T14:44:22.160Z,44.00
2022-08-29T14:46:49.455Z,44.50
2022-08-29T14:49:16.666Z,44.20
2022-08-29T14:51:44.384Z,43.70
2022-08-29T14:54:11.884Z,43.90
2022-08-29T14:56:55.010Z,42.60
2022-08-29T14:59:22.840Z,44.00
2022-08-29T15:01:54.191Z,43.30
2022-08-29T15:04:34.758Z,43.00
2022-08-29T15:07:06.438Z,43.10
2022-08-29T15:09:33.343Z,42.90
2022-08-29T15:12:00.146Z,42.60
2022-08-29T15:14:26.998Z,41.80
2022-08-29T15:16:53.781Z,41.50
2022-08-29T15:22:08.743Z,40.50
2022-08-29T15:24:35.674Z,39.70
2022-08-29T15:27:03.518Z,37.70
2022-08-29T15:29:30.282Z,37.60
2022-08-29T15:31:57.497Z,38.50
2022-08-29T15:34:29.159Z,39.80
2022-08-29T15:36:56.906Z,38.70
2022-08-29T15:39:27.179Z,38.00
2022-08-29T15:41:59.408Z,37.10
2022-08-29T15:44:28.342Z,35.90
2022-08-29T15:46:56.786Z,35.30
2022-08-29T15:49:25.953Z,35.50
2022-08-29T15:51:53.792Z,34.80
2022-08-29T15:54:21.696Z,35.70
2022-08-29T15:56:48.938Z,35.70
2022-08-29T15:59:16.833Z,35.80
2022-08-29T16:01:46.748Z,35.60
2022-08-29T16:04:15.355Z,34.30
2022-08-29T16:06:42.159Z,35.40
2022-08-29T16:09:15.084Z,34.40
2022-08-29T16:11:47.997Z,34.00
2022-08-29T16:14:57.531Z,34.00
2022-08-29T16:17:04.944Z,34.20
2022-08-29T16:19:32.416Z,33.40
2022-08-29T16:22:04.371Z,33.40
2022-08-29T16:24:34.674Z,33.40
2022-08-29T16:27:01.450Z,34.00
2022-08-29T16:29:28.370Z,34.20
2022-08-29T16:31:58.267Z,35.10
2022-08-29T16:34:26.432Z,34.80
2022-08-29T16:37:00.689Z,35.10
2022-08-29T16:39:28.749Z,35.30
2022-08-29T16:41:55.793Z,36.00
2022-08-29T16:44:23.177Z,35.50
2022-08-29T16:46:49.950Z,36.20
2022-08-29T16:49:16.993Z,36.50
2022-08-29T16:51:43.777Z,36.00
2022-08-29T16:54:12.043Z,35.90
2022-08-29T16:56:39.709Z,35.50
2022-08-29T16:59:06.689Z,36.10
2022-08-29T17:01:43.074Z,36.20
2022-08-29T17:04:16.294Z,36.50
2022-08-29T17:06:43.402Z,36.50
2022-08-29T17:09:10.194Z,36.50
2022-08-29T17:11:37.781Z,36.10
2022-08-29T17:14:05.923Z,36.60
2022-08-29T17:16:33.295Z,37.30
2022-08-29T17:19:01.113Z,37.50
2022-08-29T17:21:27.908Z,38.00
2022-08-29T17:23:55.344Z,38.10
2022-08-29T17:26:23.451Z,39.20
2022-08-29T17:28:50.968Z,40.00
2022-08-29T17:31:17.857Z,41.40
2022-08-29T17:33:45.989Z,41.80
2022-08-29T17:36:12.948Z,43.30
2022-08-29T17:38:41.647Z,44.50
2022-08-29T17:41:15.405Z,45.60
2022-08-29T17:43:45.584Z,46.60
2022-08-29T17:46:12.401Z,47.50
2022-08-29T17:48:39.665Z,47.90
2022-08-29T17:51:06.822Z,48.30
2022-08-29T17:53:33.953Z,49.80
2022-08-29T17:56:25.267Z,50.70
2022-08-29T17:58:52.287Z,51.80
2022-08-29T18:01:19.334Z,52.40
2022-08-29T18:03:46.785Z,53.70
2022-08-29T18:06:14.468Z,54.50
2022-08-29T18:08:41.576Z,55.10
2022-08-29T18:11:12.196Z,55.70
2022-08-29T18:13:39.209Z,56.10
2022-08-29T18:16:06.046Z,56.60
2022-08-29T18:18:32.869Z,56.80
2022-08-29T18:21:00.614Z,57.50
2022-08-29T18:23:27.409Z,58.10
2022-08-29T18:25:54.455Z,58.40
2022-08-29T18:28:21.766Z,58.30
2022-08-29T18:30:49.197Z,58.40
2022-08-29T18:33:15.992Z,58.70
2022-08-29T18:35:42.907Z,59.50
2022-08-29T18:38:10.403Z,59.60
2022-08-29T18:40:39.830Z,59.70
2022-08-29T18:43:09.955Z,59.80
2022-08-29T18:45:39.527Z,60.40
2022-08-29T18:48:07.176Z,60.40
2022-08-29T18:50:36.660Z,60.60
2022-08-29T18:53:13.028Z,61.00
2022-08-29T18:55:43.978Z,61.60
2022-08-29T18:58:17.559Z,62.10
2022-08-29T19:00:44.788Z,62.40
2022-08-29T19:03:12.316Z,62.10
2022-08-29T19:05:42.582Z,62.40
2022-08-29T19:08:11.631Z,62.60
2022-08-29T19:10:38.522Z,63.10
2022-08-29T19:13:08.042Z,63.80
2022-08-29T19:15:41.378Z,64.00
2022-08-29T19:18:09.933Z,64.10
2022-08-29T19:20:55.306Z,64.20
2022-08-29T19:23:22.540Z,64.70
2022-08-29T19:25:49.684Z,64.90
2022-08-29T19:28:19.648Z,65.20
2022-08-29T19:30:47.664Z,65.40
2022-08-29T19:33:17.796Z,65.30
2022-08-29T19:35:46.337Z,65.40
2022-08-29T19:38:13.055Z,65.00
2022-08-29T19:40:40.037Z,65.20
2022-08-29T19:43:13.464Z,65.30
2022-08-29T19:45:42.211Z,65.10
2022-08-29T19:48:09.165Z,65.50
2022-08-29T19:50:42.231Z,66.10
2022-08-29T19:53:09.990Z,66.00
2022-08-29T19:55:38.073Z,66.30
2022-08-29T19:58:05.114Z,66.40
2022-08-29T20:00:32.130Z,66.60
2022-08-29T20:02:59.580Z,66.50
2022-08-29T20:05:26.512Z,66.50
2022-08-29T20:07:53.393Z,65.70
2022-08-29T20:10:23.296Z,64.80
2022-08-29T20:12:51.771Z,65.10
2022-08-29T20:15:20.490Z,66.90
2022-08-29T20:17:47.344Z,67.40
2022-08-29T20:20:18.576Z,67.70
2022-08-29T20:22:45.939Z,67.50
2022-08-29T20:25:15.652Z,67.40
2022-08-29T20:27:43.328Z,67.00
2022-08-29T20:30:17.723Z,67.40
2022-08-29T20:32:47.772Z,68.20
2022-08-29T20:35:36.557Z,68.50
2022-08-29T20:38:03.560Z,68.70
2022-08-29T20:40:30.411Z,68.10
2022-08-29T20:42:57.549Z,68.90
2022-08-29T20:45:24.951Z,69.30
2022-08-29T20:47:52.354Z,71.00
2022-08-29T20:50:19.226Z,71.90
2022-08-29T20:52:47.199Z,72.00
2022-08-29T20:55:13.941Z,71.90
2022-08-29T20:57:41.179Z,71.10
2022-08-29T21:00:09.397Z,71.10
2022-08-29T21:02:55.164Z,71.20
2022-08-29T21:05:41.536Z,70.60
2022-08-29T21:08:11.217Z,70.20
2022-08-29T21:10:38.182Z,70.20
2022-08-29T21:13:05.689Z,70.30
2022-08-29T21:15:33.236Z,71.00
2022-08-29T21:18:00.786Z,70.90
2022-08-29T21:20:27.908Z,71.30
2022-08-29T21:22:54.756Z,72.60
2022-08-29T21:25:21.610Z,73.60
2022-08-29T21:27:48.338Z,74.60
2022-08-29T21:30:15.360Z,74.20
2022-08-29T21:32:42.224Z,73.10
2022-08-29T21:35:09.202Z,72.40
2022-08-29T21:37:36.079Z,71.60
2022-08-29T21:40:05.764Z,72.00
2022-08-29T21:42:33.905Z,73.00
2022-08-29T21:45:00.635Z,72.20
2022-08-29T21:47:28.197Z,71.80
2022-08-29T21:49:54.902Z,71.80
2022-08-29T21:52:21.865Z,71.00
2022-08-29T21:54:49.917Z,70.70
2022-08-29T21:57:39.490Z,69.70
2022-08-29T22:00:08.394Z,70.30
2022-08-29T22:02:35.161Z,70.60
2022-08-29T22:05:02.421Z,71.40
2022-08-29T22:07:30.204Z,71.40
2022-08-29T22:09:56.906Z,71.00
2022-08-29T22:12:24.936Z,71.60
2022-08-29T22:15:10.176Z,71.10
2022-08-29T22:17:36.913Z,70.70
2022-08-29T22:20:04.721Z,71.00
2022-08-29T22:22:31.479Z,71.20
2022-08-29T22:24:58.188Z,71.40
2022-08-29T22:27:24.927Z,71.90
2022-08-29T22:29:51.661Z,71.70
2022-08-29T22:32:18.448Z,72.00
2022-08-29T22:34:45.174Z,71.50
2022-08-29T22:37:11.980Z,71.50
2022-08-29T22:39:38.676Z,72.00
2022-08-29T22:42:05.529Z,71.60
2022-08-29T22:44:59.657Z,71.30
2022-08-29T22:47:19.027Z,70.80
2022-08-29T22:49:46.305Z,70.30
2022-08-29T22:52:13.048Z,71.00
2022-08-29T22:54:40.099Z,72.20
2022-08-29T22:57:13.926Z,72.00
2022-08-29T22:59:41.716Z,73.00
2022-08-29T23:02:09.894Z,74.40
2022-08-29T23:04:37.416Z,73.60
2022-08-29T23:07:06.114Z,73.70
2022-08-29T23:09:35.422Z,74.70
2022-08-29T23:12:04.891Z,74.10
2022-08-29T23:14:32.593Z,73.80
2022-08-29T23:16:59.276Z,73.20
2022-08-29T23:19:26.024Z,73.40
2022-08-29T23:21:55.596Z,73.80
2022-08-29T23:24:24.136Z,74.70
2022-08-29T23:26:50.831Z,74.70
2022-08-29T23:29:19.156Z,74.60
2022-08-29T23:31:46.305Z,74.50
2022-08-29T23:34:13.326Z,74.80
2022-08-29T23:36:40.192Z,73.40
2022-08-29T23:39:07.298Z,73.60
2022-08-29T23:41:35.380Z,72.90
2022-08-29T23:44:02.641Z,72.90
2022-08-29T23:46:29.936Z,72.50
2022-08-29T23:48:56.890Z,72.10
2022-08-29T23:51:23.775Z,71.60
2022-08-29T23:53:50.488Z,71.50
2022-08-29T23:56:20.107Z,72.70
2022-08-29T23:58:47.665Z,73.10
